sensor_id;sensor_type;location;lat;lon;timestamp;P1;durP1;ratioP1;P2;durP2;ratioP2
22191;SDS011;11261;52.456;10.850;2023-11-22T00:00:02;2.72;;;1.63;;
22191;SDS011;11261;52.456;10.850;2023-11-22T00:02:33;2.95;;;2.15;;
22191;SDS011;11261;52.456;10.850;2023-11-22T00:05:03;4.60;;;1.55;;
22191;SDS011;11261;52.456;10.850;2023-11-22T00:07:32;2.75;;;1.67;;
22191;SDS011;11261;52.456;10.850;2023-11-22T00:10:01;2.85;;;1.73;;
22191;SDS011;11261;52.456;10.850;2023-11-22T00:12:31;4.18;;;1.98;;
22191;SDS011;11261;52.456;10.850;2023-11-22T00:15:03;4.68;;;2.20;;
22191;SDS011;11261;52.456;10.850;2023-11-22T00:17:33;4.38;;;1.67;;
22191;SDS011;11261;52.456;10.850;2023-11-22T00:20:04;5.65;;;1.70;;
22191;SDS011;11261;52.456;10.850;2023-11-22T00:22:34;3.28;;;2.08;;
22191;SDS011;11261;52.456;10.850;2023-11-22T00:25:03;2.13;;;1.73;;
22191;SDS011;11261;52.456;10.850;2023-11-22T00:27:32;4.88;;;2.17;;
22191;SDS011;11261;52.456;10.850;2023-11-22T00:30:01;2.50;;;1.58;;
22191;SDS011;11261;52.456;10.850;2023-11-22T00:32:31;2.28;;;1.50;;
22191;SDS011;11261;52.456;10.850;2023-11-22T00:35:00;3.15;;;1.92;;
22191;SDS011;11261;52.456;10.850;2023-11-22T00:37:30;4.28;;;1.75;;
22191;SDS011;11261;52.456;10.850;2023-11-22T00:39:59;2.85;;;2.10;;
22191;SDS011;11261;52.456;10.850;2023-11-22T00:42:32;6.00;;;1.73;;
22191;SDS011;11261;52.456;10.850;2023-11-22T00:45:02;4.95;;;2.17;;
22191;SDS011;11261;52.456;10.850;2023-11-22T00:47:32;3.53;;;2.00;;
22191;SDS011;11261;52.456;10.850;2023-11-22T00:50:00;2.25;;;1.52;;
22191;SDS011;11261;52.456;10.850;2023-11-22T00:52:32;4.03;;;1.70;;
22191;SDS011;11261;52.456;10.850;2023-11-22T00:55:02;6.65;;;2.03;;
22191;SDS011;11261;52.456;10.850;2023-11-22T00:57:31;4.93;;;1.58;;
22191;SDS011;11261;52.456;10.850;2023-11-22T00:59:59;3.05;;;1.88;;
22191;SDS011;11261;52.456;10.850;2023-11-22T01:02:30;5.70;;;1.90;;
22191;SDS011;11261;52.456;10.850;2023-11-22T01:04:59;3.72;;;2.00;;
22191;SDS011;11261;52.456;10.850;2023-11-22T01:07:28;2.60;;;1.70;;
22191;SDS011;11261;52.456;10.850;2023-11-22T01:09:57;2.13;;;1.70;;
22191;SDS011;11261;52.456;10.850;2023-11-22T01:12:25;3.22;;;1.83;;
22191;SDS011;11261;52.456;10.850;2023-11-22T01:14:54;3.58;;;1.70;;
22191;SDS011;11261;52.456;10.850;2023-11-22T01:17:23;3.30;;;1.70;;
22191;SDS011;11261;52.456;10.850;2023-11-22T01:19:51;3.33;;;2.00;;
22191;SDS011;11261;52.456;10.850;2023-11-22T01:22:20;2.85;;;1.67;;
22191;SDS011;11261;52.456;10.850;2023-11-22T01:24:48;3.45;;;1.73;;
22191;SDS011;11261;52.456;10.850;2023-11-22T01:27:18;3.28;;;1.98;;
22191;SDS011;11261;52.456;10.850;2023-11-22T01:29:46;2.63;;;1.70;;
22191;SDS011;11261;52.456;10.850;2023-11-22T01:32:15;3.67;;;1.80;;
22191;SDS011;11261;52.456;10.850;2023-11-22T01:34:45;2.35;;;1.58;;
22191;SDS011;11261;52.456;10.850;2023-11-22T01:37:14;3.88;;;1.67;;
22191;SDS011;11261;52.456;10.850;2023-11-22T01:39:42;2.42;;;1.70;;
22191;SDS011;11261;52.456;10.850;2023-11-22T01:42:11;2.75;;;2.10;;
22191;SDS011;11261;52.456;10.850;2023-11-22T01:44:41;3.83;;;2.00;;
22191;SDS011;11261;52.456;10.850;2023-11-22T01:47:09;5.18;;;2.42;;
22191;SDS011;11261;52.456;10.850;2023-11-22T01:49:37;3.47;;;2.20;;
22191;SDS011;11261;52.456;10.850;2023-11-22T01:52:06;3.95;;;2.33;;
22191;SDS011;11261;52.456;10.850;2023-11-22T01:54:35;4.43;;;2.20;;
22191;SDS011;11261;52.456;10.850;2023-11-22T01:57:03;3.97;;;2.22;;
22191;SDS011;11261;52.456;10.850;2023-11-22T01:59:35;3.33;;;2.28;;
22191;SDS011;11261;52.456;10.850;2023-11-22T02:02:06;5.90;;;2.50;;
22191;SDS011;11261;52.456;10.850;2023-11-22T02:04:34;3.42;;;2.22;;
22191;SDS011;11261;52.456;10.850;2023-11-22T02:07:03;3.78;;;2.28;;
22191;SDS011;11261;52.456;10.850;2023-11-22T02:09:32;3.08;;;2.25;;
22191;SDS011;11261;52.456;10.850;2023-11-22T02:12:01;6.82;;;2.22;;
22191;SDS011;11261;52.456;10.850;2023-11-22T02:14:29;6.53;;;2.15;;
22191;SDS011;11261;52.456;10.850;2023-11-22T02:17:01;3.97;;;2.40;;
22191;SDS011;11261;52.456;10.850;2023-11-22T02:19:31;2.92;;;2.35;;
22191;SDS011;11261;52.456;10.850;2023-11-22T02:21:59;3.72;;;2.13;;
22191;SDS011;11261;52.456;10.850;2023-11-22T02:24:30;3.72;;;1.92;;
22191;SDS011;11261;52.456;10.850;2023-11-22T02:27:00;4.90;;;2.20;;
22191;SDS011;11261;52.456;10.850;2023-11-22T02:29:30;3.70;;;2.30;;
22191;SDS011;11261;52.456;10.850;2023-11-22T02:31:59;4.07;;;2.15;;
22191;SDS011;11261;52.456;10.850;2023-11-22T02:34:27;4.55;;;2.47;;
22191;SDS011;11261;52.456;10.850;2023-11-22T02:36:56;3.50;;;2.00;;
22191;SDS011;11261;52.456;10.850;2023-11-22T02:39:32;2.72;;;2.05;;
22191;SDS011;11261;52.456;10.850;2023-11-22T02:42:08;3.63;;;2.22;;
22191;SDS011;11261;52.456;10.850;2023-11-22T02:44:37;3.33;;;2.13;;
22191;SDS011;11261;52.456;10.850;2023-11-22T02:47:06;2.17;;;1.80;;
22191;SDS011;11261;52.456;10.850;2023-11-22T02:49:37;2.88;;;2.00;;
22191;SDS011;11261;52.456;10.850;2023-11-22T02:52:05;3.40;;;1.95;;
22191;SDS011;11261;52.456;10.850;2023-11-22T02:54:35;5.95;;;2.13;;
22191;SDS011;11261;52.456;10.850;2023-11-22T02:57:03;4.55;;;2.00;;
22191;SDS011;11261;52.456;10.850;2023-11-22T02:59:32;3.50;;;2.17;;
22191;SDS011;11261;52.456;10.850;2023-11-22T03:02:00;3.50;;;2.03;;
22191;SDS011;11261;52.456;10.850;2023-11-22T03:04:29;6.05;;;1.73;;
22191;SDS011;11261;52.456;10.850;2023-11-22T03:06:58;2.70;;;1.98;;
22191;SDS011;11261;52.456;10.850;2023-11-22T03:09:26;3.55;;;1.98;;
22191;SDS011;11261;52.456;10.850;2023-11-22T03:11:56;3.85;;;2.22;;
22191;SDS011;11261;52.456;10.850;2023-11-22T03:14:24;4.00;;;2.08;;
22191;SDS011;11261;52.456;10.850;2023-11-22T03:16:53;2.67;;;1.73;;
22191;SDS011;11261;52.456;10.850;2023-11-22T03:19:21;5.53;;;1.95;;
22191;SDS011;11261;52.456;10.850;2023-11-22T03:21:50;3.15;;;2.00;;
22191;SDS011;11261;52.456;10.850;2023-11-22T03:24:19;3.90;;;2.25;;
22191;SDS011;11261;52.456;10.850;2023-11-22T03:26:47;3.05;;;2.05;;
22191;SDS011;11261;52.456;10.850;2023-11-22T03:29:18;2.95;;;1.75;;
22191;SDS011;11261;52.456;10.850;2023-11-22T03:31:46;4.85;;;1.92;;
22191;SDS011;11261;52.456;10.850;2023-11-22T03:34:14;5.47;;;2.17;;
22191;SDS011;11261;52.456;10.850;2023-11-22T03:36:43;3.65;;;2.33;;
22191;SDS011;11261;52.456;10.850;2023-11-22T03:39:12;3.85;;;1.95;;
22191;SDS011;11261;52.456;10.850;2023-11-22T03:41:41;3.88;;;2.20;;
22191;SDS011;11261;52.456;10.850;2023-11-22T03:44:09;3.83;;;1.88;;
22191;SDS011;11261;52.456;10.850;2023-11-22T03:46:39;4.40;;;1.85;;
22191;SDS011;11261;52.456;10.850;2023-11-22T03:49:08;4.30;;;2.30;;
22191;SDS011;11261;52.456;10.850;2023-11-22T03:51:37;5.03;;;2.00;;
22191;SDS011;11261;52.456;10.850;2023-11-22T03:54:06;3.05;;;1.90;;
22191;SDS011;11261;52.456;10.850;2023-11-22T03:56:36;4.25;;;2.08;;
22191;SDS011;11261;52.456;10.850;2023-11-22T03:59:05;4.75;;;2.17;;
22191;SDS011;11261;52.456;10.850;2023-11-22T04:01:34;2.08;;;1.52;;
22191;SDS011;11261;52.456;10.850;2023-11-22T04:04:04;3.65;;;2.03;;
22191;SDS011;11261;52.456;10.850;2023-11-22T04:06:32;4.93;;;1.92;;
22191;SDS011;11261;52.456;10.850;2023-11-22T04:09:01;3.30;;;1.75;;
22191;SDS011;11261;52.456;10.850;2023-11-22T04:11:29;4.22;;;2.05;;
22191;SDS011;11261;52.456;10.850;2023-11-22T04:13:58;3.75;;;1.70;;
22191;SDS011;11261;52.456;10.850;2023-11-22T04:16:27;2.83;;;1.60;;
22191;SDS011;11261;52.456;10.850;2023-11-22T04:18:56;3.15;;;1.95;;
22191;SDS011;11261;52.456;10.850;2023-11-22T04:21:26;3.35;;;1.98;;
22191;SDS011;11261;52.456;10.850;2023-11-22T04:23:55;2.53;;;1.73;;
22191;SDS011;11261;52.456;10.850;2023-11-22T04:26:23;4.57;;;2.00;;
22191;SDS011;11261;52.456;10.850;2023-11-22T04:28:53;2.03;;;1.55;;
22191;SDS011;11261;52.456;10.850;2023-11-22T04:31:21;3.72;;;1.85;;
22191;SDS011;11261;52.456;10.850;2023-11-22T04:33:50;3.60;;;1.92;;
22191;SDS011;11261;52.456;10.850;2023-11-22T04:36:19;2.97;;;1.75;;
22191;SDS011;11261;52.456;10.850;2023-11-22T04:38:52;3.50;;;2.10;;
22191;SDS011;11261;52.456;10.850;2023-11-22T04:41:20;3.65;;;2.10;;
22191;SDS011;11261;52.456;10.850;2023-11-22T04:43:51;3.58;;;2.10;;
22191;SDS011;11261;52.456;10.850;2023-11-22T04:46:20;3.63;;;1.88;;
22191;SDS011;11261;52.456;10.850;2023-11-22T04:48:49;4.32;;;2.10;;
22191;SDS011;11261;52.456;10.850;2023-11-22T04:51:18;2.63;;;1.90;;
22191;SDS011;11261;52.456;10.850;2023-11-22T04:53:47;3.95;;;1.95;;
22191;SDS011;11261;52.456;10.850;2023-11-22T04:56:17;4.75;;;2.17;;
22191;SDS011;11261;52.456;10.850;2023-11-22T04:58:45;3.10;;;1.60;;
22191;SDS011;11261;52.456;10.850;2023-11-22T05:01:14;3.35;;;1.75;;
22191;SDS011;11261;52.456;10.850;2023-11-22T05:03:46;3.60;;;1.90;;
22191;SDS011;11261;52.456;10.850;2023-11-22T05:06:15;3.22;;;2.03;;
22191;SDS011;11261;52.456;10.850;2023-11-22T05:08:43;3.65;;;2.47;;
22191;SDS011;11261;52.456;10.850;2023-11-22T05:11:12;3.33;;;2.03;;
22191;SDS011;11261;52.456;10.850;2023-11-22T05:13:43;2.10;;;1.35;;
22191;SDS011;11261;52.456;10.850;2023-11-22T05:16:11;3.45;;;2.00;;
22191;SDS011;11261;52.456;10.850;2023-11-22T05:18:41;2.97;;;1.90;;
22191;SDS011;11261;52.456;10.850;2023-11-22T05:21:09;5.63;;;2.30;;
22191;SDS011;11261;52.456;10.850;2023-11-22T05:23:37;3.40;;;2.13;;
22191;SDS011;11261;52.456;10.850;2023-11-22T05:26:09;4.53;;;2.10;;
22191;SDS011;11261;52.456;10.850;2023-11-22T05:28:37;2.38;;;1.60;;
22191;SDS011;11261;52.456;10.850;2023-11-22T05:31:07;3.38;;;1.73;;
22191;SDS011;11261;52.456;10.850;2023-11-22T05:33:36;2.38;;;1.63;;
22191;SDS011;11261;52.456;10.850;2023-11-22T05:36:04;4.57;;;1.73;;
22191;SDS011;11261;52.456;10.850;2023-11-22T05:38:33;4.30;;;1.67;;
22191;SDS011;11261;52.456;10.850;2023-11-22T05:41:02;3.97;;;1.70;;
22191;SDS011;11261;52.456;10.850;2023-11-22T05:43:30;2.03;;;1.45;;
22191;SDS011;11261;52.456;10.850;2023-11-22T05:46:03;2.78;;;1.55;;
22191;SDS011;11261;52.456;10.850;2023-11-22T05:48:33;3.15;;;1.52;;
22191;SDS011;11261;52.456;10.850;2023-11-22T05:51:02;2.83;;;1.80;;
22191;SDS011;11261;52.456;10.850;2023-11-22T05:53:30;2.75;;;1.73;;
22191;SDS011;11261;52.456;10.850;2023-11-22T05:55:59;3.67;;;2.20;;
22191;SDS011;11261;52.456;10.850;2023-11-22T05:58:30;3.97;;;1.60;;
22191;SDS011;11261;52.456;10.850;2023-11-22T06:00:59;3.05;;;1.83;;
22191;SDS011;11261;52.456;10.850;2023-11-22T06:03:27;3.38;;;2.00;;
22191;SDS011;11261;52.456;10.850;2023-11-22T06:05:57;2.85;;;1.88;;
22191;SDS011;11261;52.456;10.850;2023-11-22T06:08:26;5.03;;;2.22;;
22191;SDS011;11261;52.456;10.850;2023-11-22T06:10:54;3.30;;;1.80;;
22191;SDS011;11261;52.456;10.850;2023-11-22T06:13:24;4.32;;;1.98;;
22191;SDS011;11261;52.456;10.850;2023-11-22T06:15:53;3.72;;;2.10;;
22191;SDS011;11261;52.456;10.850;2023-11-22T06:18:22;2.42;;;1.60;;
22191;SDS011;11261;52.456;10.850;2023-11-22T06:20:55;4.35;;;2.30;;
22191;SDS011;11261;52.456;10.850;2023-11-22T06:23:25;2.38;;;1.67;;
22191;SDS011;11261;52.456;10.850;2023-11-22T06:25:55;5.50;;;2.78;;
22191;SDS011;11261;52.456;10.850;2023-11-22T06:28:23;6.00;;;3.22;;
22191;SDS011;11261;52.456;10.850;2023-11-22T06:30:52;4.18;;;2.38;;
22191;SDS011;11261;52.456;10.850;2023-11-22T06:33:20;5.28;;;2.00;;
22191;SDS011;11261;52.456;10.850;2023-11-22T06:35:49;5.15;;;1.98;;
22191;SDS011;11261;52.456;10.850;2023-11-22T06:38:19;3.47;;;1.90;;
22191;SDS011;11261;52.456;10.850;2023-11-22T06:40:47;3.97;;;2.20;;
22191;SDS011;11261;52.456;10.850;2023-11-22T06:43:16;2.70;;;1.95;;
22191;SDS011;11261;52.456;10.850;2023-11-22T06:45:44;4.85;;;2.42;;
22191;SDS011;11261;52.456;10.850;2023-11-22T06:48:13;2.65;;;1.83;;
22191;SDS011;11261;52.456;10.850;2023-11-22T06:50:41;6.32;;;2.45;;
22191;SDS011;11261;52.456;10.850;2023-11-22T06:53:11;4.43;;;2.25;;
22191;SDS011;11261;52.456;10.850;2023-11-22T06:55:41;8.50;;;3.77;;
22191;SDS011;11261;52.456;10.850;2023-11-22T06:58:11;9.30;;;3.20;;
22191;SDS011;11261;52.456;10.850;2023-11-22T07:00:40;8.73;;;4.88;;
22191;SDS011;11261;52.456;10.850;2023-11-22T07:03:09;8.35;;;3.85;;
22191;SDS011;11261;52.456;10.850;2023-11-22T07:05:39;4.93;;;2.42;;
22191;SDS011;11261;52.456;10.850;2023-11-22T07:08:07;7.80;;;3.15;;
22191;SDS011;11261;52.456;10.850;2023-11-22T07:10:37;6.20;;;2.55;;
22191;SDS011;11261;52.456;10.850;2023-11-22T07:13:07;8.60;;;2.60;;
22191;SDS011;11261;52.456;10.850;2023-11-22T07:15:36;6.60;;;2.95;;
22191;SDS011;11261;52.456;10.850;2023-11-22T07:18:04;5.22;;;2.83;;
22191;SDS011;11261;52.456;10.850;2023-11-22T07:20:33;4.00;;;2.67;;
22191;SDS011;11261;52.456;10.850;2023-11-22T07:23:01;6.32;;;2.83;;
22191;SDS011;11261;52.456;10.850;2023-11-22T07:25:30;3.58;;;2.25;;
22191;SDS011;11261;52.456;10.850;2023-11-22T07:28:00;5.05;;;2.72;;
22191;SDS011;11261;52.456;10.850;2023-11-22T07:30:30;4.75;;;2.38;;
22191;SDS011;11261;52.456;10.850;2023-11-22T07:33:00;4.85;;;2.47;;
22191;SDS011;11261;52.456;10.850;2023-11-22T07:35:28;4.57;;;2.67;;
22191;SDS011;11261;52.456;10.850;2023-11-22T07:37:57;4.85;;;2.35;;
22191;SDS011;11261;52.456;10.850;2023-11-22T07:40:25;3.72;;;2.10;;
22191;SDS011;11261;52.456;10.850;2023-11-22T07:42:54;2.95;;;2.00;;
22191;SDS011;11261;52.456;10.850;2023-11-22T07:45:22;2.58;;;1.60;;
22191;SDS011;11261;52.456;10.850;2023-11-22T07:47:52;4.35;;;1.65;;
22191;SDS011;11261;52.456;10.850;2023-11-22T07:50:23;6.07;;;1.67;;
22191;SDS011;11261;52.456;10.850;2023-11-22T07:52:51;4.20;;;1.77;;
22191;SDS011;11261;52.456;10.850;2023-11-22T07:55:21;5.43;;;2.25;;
22191;SDS011;11261;52.456;10.850;2023-11-22T07:57:50;3.88;;;1.67;;
22191;SDS011;11261;52.456;10.850;2023-11-22T08:00:19;2.63;;;1.50;;
22191;SDS011;11261;52.456;10.850;2023-11-22T08:02:49;3.78;;;2.30;;
22191;SDS011;11261;52.456;10.850;2023-11-22T08:05:22;3.10;;;1.90;;
22191;SDS011;11261;52.456;10.850;2023-11-22T08:07:52;5.70;;;2.15;;
22191;SDS011;11261;52.456;10.850;2023-11-22T08:10:20;3.47;;;2.25;;
22191;SDS011;11261;52.456;10.850;2023-11-22T08:12:51;3.75;;;1.80;;
22191;SDS011;11261;52.456;10.850;2023-11-22T08:15:20;3.03;;;2.28;;
22191;SDS011;11261;52.456;10.850;2023-11-22T08:17:48;3.00;;;2.10;;
22191;SDS011;11261;52.456;10.850;2023-11-22T08:20:17;3.13;;;2.30;;
22191;SDS011;11261;52.456;10.850;2023-11-22T08:22:47;5.68;;;2.30;;
22191;SDS011;11261;52.456;10.850;2023-11-22T08:25:17;3.47;;;2.00;;
22191;SDS011;11261;52.456;10.850;2023-11-22T08:27:45;4.70;;;2.42;;
22191;SDS011;11261;52.456;10.850;2023-11-22T08:30:14;3.85;;;2.50;;
22191;SDS011;11261;52.456;10.850;2023-11-22T08:32:45;3.22;;;2.55;;
22191;SDS011;11261;52.456;10.850;2023-11-22T08:35:21;4.22;;;3.08;;
22191;SDS011;11261;52.456;10.850;2023-11-22T08:37:51;5.63;;;2.70;;
22191;SDS011;11261;52.456;10.850;2023-11-22T08:40:20;4.10;;;2.65;;
22191;SDS011;11261;52.456;10.850;2023-11-22T08:42:48;4.75;;;2.55;;
22191;SDS011;11261;52.456;10.850;2023-11-22T08:45:17;3.88;;;2.85;;
22191;SDS011;11261;52.456;10.850;2023-11-22T08:47:45;3.22;;;2.38;;
22191;SDS011;11261;52.456;10.850;2023-11-22T08:50:14;4.55;;;2.33;;
22191;SDS011;11261;52.456;10.850;2023-11-22T08:52:43;4.07;;;2.42;;
22191;SDS011;11261;52.456;10.850;2023-11-22T08:55:15;4.57;;;2.75;;
22191;SDS011;11261;52.456;10.850;2023-11-22T08:57:43;3.70;;;2.75;;
22191;SDS011;11261;52.456;10.850;2023-11-22T09:00:12;4.38;;;2.53;;
22191;SDS011;11261;52.456;10.850;2023-11-22T09:02:41;5.30;;;3.30;;
22191;SDS011;11261;52.456;10.850;2023-11-22T09:05:10;3.90;;;2.33;;
22191;SDS011;11261;52.456;10.850;2023-11-22T09:07:39;5.30;;;2.50;;
22191;SDS011;11261;52.456;10.850;2023-11-22T09:10:08;3.10;;;2.10;;
22191;SDS011;11261;52.456;10.850;2023-11-22T09:12:41;3.88;;;2.33;;
22191;SDS011;11261;52.456;10.850;2023-11-22T09:15:10;6.57;;;3.50;;
22191;SDS011;11261;52.456;10.850;2023-11-22T09:17:42;5.50;;;3.05;;
22191;SDS011;11261;52.456;10.850;2023-11-22T09:20:13;7.03;;;3.28;;
22191;SDS011;11261;52.456;10.850;2023-11-22T09:22:44;4.00;;;2.72;;
22191;SDS011;11261;52.456;10.850;2023-11-22T09:25:15;6.25;;;2.80;;
22191;SDS011;11261;52.456;10.850;2023-11-22T09:27:47;6.07;;;3.15;;
22191;SDS011;11261;52.456;10.850;2023-11-22T09:30:19;4.80;;;2.80;;
22191;SDS011;11261;52.456;10.850;2023-11-22T09:33:01;5.72;;;3.33;;
22191;SDS011;11261;52.456;10.850;2023-11-22T09:35:31;7.13;;;3.33;;
22191;SDS011;11261;52.456;10.850;2023-11-22T09:38:01;6.00;;;3.20;;
22191;SDS011;11261;52.456;10.850;2023-11-22T09:40:30;6.85;;;3.50;;
22191;SDS011;11261;52.456;10.850;2023-11-22T09:43:00;6.78;;;3.60;;
22191;SDS011;11261;52.456;10.850;2023-11-22T09:45:30;5.53;;;2.95;;
22191;SDS011;11261;52.456;10.850;2023-11-22T09:47:59;5.45;;;3.10;;
22191;SDS011;11261;52.456;10.850;2023-11-22T09:50:30;7.53;;;3.38;;
22191;SDS011;11261;52.456;10.850;2023-11-22T09:53:04;5.30;;;2.90;;
22191;SDS011;11261;52.456;10.850;2023-11-22T09:55:38;7.40;;;5.20;;
22191;SDS011;11261;52.456;10.850;2023-11-22T09:58:10;5.82;;;3.63;;
22191;SDS011;11261;52.456;10.850;2023-11-22T10:00:40;6.30;;;3.50;;
22191;SDS011;11261;52.456;10.850;2023-11-22T10:03:09;6.88;;;4.25;;
22191;SDS011;11261;52.456;10.850;2023-11-22T10:05:41;8.57;;;4.38;;
22191;SDS011;11261;52.456;10.850;2023-11-22T10:08:10;6.95;;;4.50;;
22191;SDS011;11261;52.456;10.850;2023-11-22T10:10:38;7.00;;;4.32;;
22191;SDS011;11261;52.456;10.850;2023-11-22T10:13:09;8.52;;;3.83;;
22191;SDS011;11261;52.456;10.850;2023-11-22T10:15:39;7.68;;;4.15;;
22191;SDS011;11261;52.456;10.850;2023-11-22T10:18:08;7.10;;;4.03;;
22191;SDS011;11261;52.456;10.850;2023-11-22T10:20:37;7.25;;;3.80;;
22191;SDS011;11261;52.456;10.850;2023-11-22T10:23:10;9.38;;;4.32;;
22191;SDS011;11261;52.456;10.850;2023-11-22T10:25:43;7.43;;;4.82;;
22191;SDS011;11261;52.456;10.850;2023-11-22T10:28:15;7.80;;;4.97;;
22191;SDS011;11261;52.456;10.850;2023-11-22T10:30:45;8.02;;;4.63;;
22191;SDS011;11261;52.456;10.850;2023-11-22T10:33:14;7.80;;;4.00;;
22191;SDS011;11261;52.456;10.850;2023-11-22T10:35:43;8.50;;;4.68;;
22191;SDS011;11261;52.456;10.850;2023-11-22T10:38:13;7.40;;;3.70;;
22191;SDS011;11261;52.456;10.850;2023-11-22T10:40:42;8.25;;;4.75;;
22191;SDS011;11261;52.456;10.850;2023-11-22T10:43:11;6.38;;;3.65;;
22191;SDS011;11261;52.456;10.850;2023-11-22T10:45:42;8.27;;;4.40;;
22191;SDS011;11261;52.456;10.850;2023-11-22T10:48:15;7.70;;;4.35;;
22191;SDS011;11261;52.456;10.850;2023-11-22T10:50:44;6.70;;;4.00;;
22191;SDS011;11261;52.456;10.850;2023-11-22T10:53:15;6.47;;;3.60;;
22191;SDS011;11261;52.456;10.850;2023-11-22T10:55:49;8.50;;;4.60;;
22191;SDS011;11261;52.456;10.850;2023-11-22T10:58:27;5.57;;;3.45;;
22191;SDS011;11261;52.456;10.850;2023-11-22T11:01:00;7.35;;;3.15;;
22191;SDS011;11261;52.456;10.850;2023-11-22T11:03:34;9.07;;;4.05;;
22191;SDS011;11261;52.456;10.850;2023-11-22T11:06:09;6.28;;;4.22;;
22191;SDS011;11261;52.456;10.850;2023-11-22T11:08:41;5.30;;;3.53;;
22191;SDS011;11261;52.456;10.850;2023-11-22T11:11:13;8.00;;;3.58;;
22191;SDS011;11261;52.456;10.850;2023-11-22T11:13:43;6.70;;;3.78;;
22191;SDS011;11261;52.456;10.850;2023-11-22T11:16:14;7.50;;;4.57;;
22191;SDS011;11261;52.456;10.850;2023-11-22T11:18:43;6.68;;;4.03;;
22191;SDS011;11261;52.456;10.850;2023-11-22T11:21:11;7.97;;;3.90;;
22191;SDS011;11261;52.456;10.850;2023-11-22T11:23:42;6.38;;;4.15;;
22191;SDS011;11261;52.456;10.850;2023-11-22T11:26:14;5.03;;;3.25;;
22191;SDS011;11261;52.456;10.850;2023-11-22T11:28:45;8.20;;;4.00;;
22191;SDS011;11261;52.456;10.850;2023-11-22T11:31:16;5.90;;;3.58;;
22191;SDS011;11261;52.456;10.850;2023-11-22T11:33:55;6.18;;;3.65;;
22191;SDS011;11261;52.456;10.850;2023-11-22T11:36:24;7.07;;;4.57;;
22191;SDS011;11261;52.456;10.850;2023-11-22T11:38:54;6.60;;;4.38;;
22191;SDS011;11261;52.456;10.850;2023-11-22T11:41:25;5.18;;;3.60;;
22191;SDS011;11261;52.456;10.850;2023-11-22T11:43:55;7.63;;;4.10;;
22191;SDS011;11261;52.456;10.850;2023-11-22T11:46:26;5.00;;;3.28;;
22191;SDS011;11261;52.456;10.850;2023-11-22T11:48:56;7.47;;;3.72;;
22191;SDS011;11261;52.456;10.850;2023-11-22T11:51:25;7.95;;;4.70;;
22191;SDS011;11261;52.456;10.850;2023-11-22T11:53:55;7.00;;;4.47;;
22191;SDS011;11261;52.456;10.850;2023-11-22T11:56:24;7.53;;;4.32;;
22191;SDS011;11261;52.456;10.850;2023-11-22T11:58:55;9.35;;;3.65;;
22191;SDS011;11261;52.456;10.850;2023-11-22T12:01:28;6.50;;;3.88;;
22191;SDS011;11261;52.456;10.850;2023-11-22T12:04:00;6.53;;;4.00;;
22191;SDS011;11261;52.456;10.850;2023-11-22T12:06:29;8.38;;;3.90;;
22191;SDS011;11261;52.456;10.850;2023-11-22T12:09:00;6.72;;;3.78;;
22191;SDS011;11261;52.456;10.850;2023-11-22T12:11:30;7.78;;;3.60;;
22191;SDS011;11261;52.456;10.850;2023-11-22T12:13:59;4.65;;;3.28;;
22191;SDS011;11261;52.456;10.850;2023-11-22T12:16:31;8.00;;;4.13;;
22191;SDS011;11261;52.456;10.850;2023-11-22T12:19:00;5.60;;;3.75;;
22191;SDS011;11261;52.456;10.850;2023-11-22T12:21:29;7.35;;;4.60;;
22191;SDS011;11261;52.456;10.850;2023-11-22T12:23:59;7.85;;;4.75;;
22191;SDS011;11261;52.456;10.850;2023-11-22T12:26:29;5.95;;;3.92;;
22191;SDS011;11261;52.456;10.850;2023-11-22T12:28:59;6.50;;;4.03;;
22191;SDS011;11261;52.456;10.850;2023-11-22T12:31:33;6.18;;;3.80;;
22191;SDS011;11261;52.456;10.850;2023-11-22T12:34:03;6.45;;;3.72;;
22191;SDS011;11261;52.456;10.850;2023-11-22T12:36:33;5.95;;;4.13;;
22191;SDS011;11261;52.456;10.850;2023-11-22T12:39:04;7.07;;;3.92;;
22191;SDS011;11261;52.456;10.850;2023-11-22T12:41:43;5.30;;;3.40;;
22191;SDS011;11261;52.456;10.850;2023-11-22T12:44:23;6.78;;;3.83;;
22191;SDS011;11261;52.456;10.850;2023-11-22T12:46:53;5.53;;;3.35;;
22191;SDS011;11261;52.456;10.850;2023-11-22T12:49:24;6.00;;;3.45;;
22191;SDS011;11261;52.456;10.850;2023-11-22T12:51:54;6.43;;;3.78;;
22191;SDS011;11261;52.456;10.850;2023-11-22T12:54:24;4.97;;;3.20;;
22191;SDS011;11261;52.456;10.850;2023-11-22T12:56:53;6.03;;;3.40;;
22191;SDS011;11261;52.456;10.850;2023-11-22T12:59:26;5.85;;;3.50;;
22191;SDS011;11261;52.456;10.850;2023-11-22T13:01:59;4.93;;;3.60;;
22191;SDS011;11261;52.456;10.850;2023-11-22T13:04:29;6.93;;;4.25;;
22191;SDS011;11261;52.456;10.850;2023-11-22T13:06:58;6.68;;;3.40;;
22191;SDS011;11261;52.456;10.850;2023-11-22T13:09:27;5.43;;;3.33;;
22191;SDS011;11261;52.456;10.850;2023-11-22T13:11:59;6.03;;;3.55;;
22191;SDS011;11261;52.456;10.850;2023-11-22T13:14:27;6.20;;;3.92;;
22191;SDS011;11261;52.456;10.850;2023-11-22T13:17:04;6.25;;;3.78;;
22191;SDS011;11261;52.456;10.850;2023-11-22T13:19:35;5.40;;;3.30;;
22191;SDS011;11261;52.456;10.850;2023-11-22T13:22:06;7.28;;;3.72;;
22191;SDS011;11261;52.456;10.850;2023-11-22T13:24:35;6.97;;;4.13;;
22191;SDS011;11261;52.456;10.850;2023-11-22T13:27:04;7.28;;;3.90;;
22191;SDS011;11261;52.456;10.850;2023-11-22T13:29:32;8.07;;;3.78;;
22191;SDS011;11261;52.456;10.850;2023-11-22T13:32:00;6.30;;;3.20;;
22191;SDS011;11261;52.456;10.850;2023-11-22T13:34:30;6.25;;;3.33;;
22191;SDS011;11261;52.456;10.850;2023-11-22T13:36:59;7.18;;;4.13;;
22191;SDS011;11261;52.456;10.850;2023-11-22T13:39:27;7.68;;;3.13;;
22191;SDS011;11261;52.456;10.850;2023-11-22T13:42:00;5.65;;;3.75;;
22191;SDS011;11261;52.456;10.850;2023-11-22T13:44:28;6.20;;;3.15;;
22191;SDS011;11261;52.456;10.850;2023-11-22T13:46:58;6.97;;;3.35;;
22191;SDS011;11261;52.456;10.850;2023-11-22T13:49:26;5.40;;;2.70;;
22191;SDS011;11261;52.456;10.850;2023-11-22T13:51:56;4.32;;;2.75;;
22191;SDS011;11261;52.456;10.850;2023-11-22T13:54:25;4.50;;;2.67;;
22191;SDS011;11261;52.456;10.850;2023-11-22T13:56:53;4.00;;;2.20;;
22191;SDS011;11261;52.456;10.850;2023-11-22T13:59:22;6.90;;;2.90;;
22191;SDS011;11261;52.456;10.850;2023-11-22T14:01:50;9.07;;;3.67;;
22191;SDS011;11261;52.456;10.850;2023-11-22T14:04:19;15.60;;;4.75;;
22191;SDS011;11261;52.456;10.850;2023-11-22T14:06:47;6.75;;;3.75;;
22191;SDS011;11261;52.456;10.850;2023-11-22T14:09:17;5.43;;;3.45;;
22191;SDS011;11261;52.456;10.850;2023-11-22T14:11:46;5.45;;;3.38;;
22191;SDS011;11261;52.456;10.850;2023-11-22T14:14:15;4.45;;;2.65;;
22191;SDS011;11261;52.456;10.850;2023-11-22T14:16:45;5.93;;;3.20;;
22191;SDS011;11261;52.456;10.850;2023-11-22T14:19:15;7.93;;;3.30;;
22191;SDS011;11261;52.456;10.850;2023-11-22T14:21:43;4.60;;;2.85;;
22191;SDS011;11261;52.456;10.850;2023-11-22T14:24:12;6.30;;;3.45;;
22191;SDS011;11261;52.456;10.850;2023-11-22T14:26:41;7.03;;;2.90;;
22191;SDS011;11261;52.456;10.850;2023-11-22T14:29:10;5.68;;;3.13;;
22191;SDS011;11261;52.456;10.850;2023-11-22T14:31:38;5.60;;;2.78;;
22191;SDS011;11261;52.456;10.850;2023-11-22T14:34:08;7.22;;;3.75;;
22191;SDS011;11261;52.456;10.850;2023-11-22T14:36:38;5.93;;;3.47;;
22191;SDS011;11261;52.456;10.850;2023-11-22T14:39:07;5.30;;;3.17;;
22191;SDS011;11261;52.456;10.850;2023-11-22T14:41:38;6.85;;;3.67;;
22191;SDS011;11261;52.456;10.850;2023-11-22T14:44:08;9.35;;;4.18;;
22191;SDS011;11261;52.456;10.850;2023-11-22T14:46:37;6.85;;;3.50;;